sensor_id;sensor_type;location;lat;lon;timestamp;pressure;altitude;pressure_sealevel;temperature;humidity
9289;BME280;4683;50.864;12.086;2024-03-08T00:01:54;99624.34;;;2.35;100.00
9289;BME280;4683;50.864;12.086;2024-03-08T00:04:22;99633.56;;;2.27;100.00
9289;BME280;4683;50.864;12.086;2024-03-08T00:06:52;99629.19;;;2.28;100.00
9289;BME280;4683;50.864;12.086;2024-03-08T00:09:21;99628.34;;;2.27;100.00
9289;BME280;4683;50.864;12.086;2024-03-08T00:11:50;99624.66;;;2.19;100.00
9289;BME280;4683;50.864;12.086;2024-03-08T00:14:19;99623.59;;;2.21;100.00
9289;BME280;4683;50.864;12.086;2024-03-08T00:16:49;99616.50;;;2.23;100.00
9289;BME280;4683;50.864;12.086;2024-03-08T00:19:21;99616.50;;;2.23;100.00
9289;BME280;4683;50.864;12.086;2024-03-08T00:21:51;99614.94;;;2.10;100.00
9289;BME280;4683;50.864;12.086;2024-03-08T00:24:22;99614.53;;;2.03;100.00
9289;BME280;4683;50.864;12.086;2024-03-08T00:26:53;99609.56;;;2.00;100.00
9289;BME280;4683;50.864;12.086;2024-03-08T00:29:23;99607.88;;;1.99;100.00
9289;BME280;4683;50.864;12.086;2024-03-08T00:31:52;99603.63;;;1.98;100.00
9289;BME280;4683;50.864;12.086;2024-03-08T00:34:23;99606.22;;;1.98;100.00
9289;BME280;4683;50.864;12.086;2024-03-08T00:36:52;99604.09;;;1.92;100.00
9289;BME280;4683;50.864;12.086;2024-03-08T00:39:22;99604.75;;;1.83;100.00
9289;BME280;4683;50.864;12.086;2024-03-08T00:41:51;99607.13;;;1.86;100.00
9289;BME280;4683;50.864;12.086;2024-03-08T00:44:21;99595.88;;;1.85;100.00
9289;BME280;4683;50.864;12.086;2024-03-08T00:46:52;99598.81;;;1.81;100.00
9289;BME280;4683;50.864;12.086;2024-03-08T00:49:27;99604.47;;;1.74;100.00
9289;BME280;4683;50.864;12.086;2024-03-08T00:51:55;99600.94;;;1.75;100.00
9289;BME280;4683;50.864;12.086;2024-03-08T00:54:26;99601.16;;;1.72;100.00
9289;BME280;4683;50.864;12.086;2024-03-08T00:56:55;99602.22;;;1.70;100.00
9289;BME280;4683;50.864;12.086;2024-03-08T00:59:25;99597.63;;;1.73;100.00
9289;BME280;4683;50.864;12.086;2024-03-08T01:01:54;99604.41;;;1.63;100.00
9289;BME280;4683;50.864;12.086;2024-03-08T01:04:24;99601.81;;;1.63;100.00
9289;BME280;4683;50.864;12.086;2024-03-08T01:06:55;99594.78;;;1.52;100.00
9289;BME280;4683;50.864;12.086;2024-03-08T01:09:24;99593.47;;;1.47;100.00
9289;BME280;4683;50.864;12.086;2024-03-08T01:11:56;99586.09;;;1.41;100.00
9289;BME280;4683;50.864;12.086;2024-03-08T01:14:25;99584.88;;;1.34;100.00
9289;BME280;4683;50.864;12.086;2024-03-08T01:16:54;99572.38;;;1.39;100.00
9289;BME280;4683;50.864;12.086;2024-03-08T01:19:24;99578.81;;;1.46;100.00
9289;BME280;4683;50.864;12.086;2024-03-08T01:21:54;99571.41;;;1.52;100.00
9289;BME280;4683;50.864;12.086;2024-03-08T01:24:25;99574.00;;;1.52;100.00
9289;BME280;4683;50.864;12.086;2024-03-08T01:26:54;99571.84;;;1.46;100.00
9289;BME280;4683;50.864;12.086;2024-03-08T01:29:23;99576.22;;;1.46;100.00
9289;BME280;4683;50.864;12.086;2024-03-08T01:31:51;99566.75;;;1.45;100.00
9289;BME280;4683;50.864;12.086;2024-03-08T01:34:21;99566.75;;;1.45;100.00
9289;BME280;4683;50.864;12.086;2024-03-08T01:36:51;99558.69;;;1.37;100.00
9289;BME280;4683;50.864;12.086;2024-03-08T01:39:20;99564.91;;;1.34;100.00
9289;BME280;4683;50.864;12.086;2024-03-08T01:41:50;99559.50;;;1.37;100.00
9289;BME280;4683;50.864;12.086;2024-03-08T01:44:18;99556.78;;;1.39;100.00
9289;BME280;4683;50.864;12.086;2024-03-08T01:46:48;99562.31;;;1.34;100.00
9289;BME280;4683;50.864;12.086;2024-03-08T01:49:22;99559.75;;;1.21;100.00
9289;BME280;4683;50.864;12.086;2024-03-08T01:51:55;99549.06;;;1.13;100.00
9289;BME280;4683;50.864;12.086;2024-03-08T01:54:24;99540.06;;;1.06;100.00
9289;BME280;4683;50.864;12.086;2024-03-08T01:56:53;99547.06;;;0.93;100.00
9289;BME280;4683;50.864;12.086;2024-03-08T01:59:22;99539.09;;;0.83;100.00
9289;BME280;4683;50.864;12.086;2024-03-08T02:01:55;99535.56;;;0.71;100.00
9289;BME280;4683;50.864;12.086;2024-03-08T02:04:23;99532.16;;;0.58;100.00
9289;BME280;4683;50.864;12.086;2024-03-08T02:06:55;99533.22;;;0.56;100.00
9289;BME280;4683;50.864;12.086;2024-03-08T02:09:24;99531.63;;;0.66;100.00
9289;BME280;4683;50.864;12.086;2024-03-08T02:11:53;99530.69;;;0.80;100.00
9289;BME280;4683;50.864;12.086;2024-03-08T02:14:21;99524.84;;;0.89;100.00
9289;BME280;4683;50.864;12.086;2024-03-08T02:16:52;99518.28;;;0.96;100.00
9289;BME280;4683;50.864;12.086;2024-03-08T02:19:22;99523.25;;;0.99;100.00
9289;BME280;4683;50.864;12.086;2024-03-08T02:21:52;99524.19;;;0.98;100.00
9289;BME280;4683;50.864;12.086;2024-03-08T02:24:21;99518.78;;;1.01;100.00
9289;BME280;4683;50.864;12.086;2024-03-08T02:26:52;99519.94;;;0.97;100.00
9289;BME280;4683;50.864;12.086;2024-03-08T02:29:21;99519.22;;;0.95;100.00
9289;BME280;4683;50.864;12.086;2024-03-08T02:31:51;99518.38;;;0.94;100.00
9289;BME280;4683;50.864;12.086;2024-03-08T02:34:22;99522.13;;;0.90;100.00
9289;BME280;4683;50.864;12.086;2024-03-08T02:36:53;99518.72;;;0.90;100.00
9289;BME280;4683;50.864;12.086;2024-03-08T02:39:24;99507.50;;;0.89;100.00
9289;BME280;4683;50.864;12.086;2024-03-08T02:41:56;99520.34;;;0.91;100.00
9289;BME280;4683;50.864;12.086;2024-03-08T02:44:24;99512.69;;;0.89;100.00
9289;BME280;4683;50.864;12.086;2024-03-08T02:46:53;99517.25;;;0.86;100.00
9289;BME280;4683;50.864;12.086;2024-03-08T02:49:24;99515.81;;;0.82;100.00
9289;BME280;4683;50.864;12.086;2024-03-08T02:51:56;99512.00;;;0.74;100.00
9289;BME280;4683;50.864;12.086;2024-03-08T02:54:26;99513.34;;;0.67;100.00
9289;BME280;4683;50.864;12.086;2024-03-08T02:56:56;99510.47;;;0.59;100.00
9289;BME280;4683;50.864;12.086;2024-03-08T02:59:25;99509.03;;;0.55;100.00
9289;BME280;4683;50.864;12.086;2024-03-08T03:01:54;99513.41;;;0.55;100.00
9289;BME280;4683;50.864;12.086;2024-03-08T03:04:23;99503.09;;;0.53;100.00
9289;BME280;4683;50.864;12.086;2024-03-08T03:06:55;99500.75;;;0.50;100.00
9289;BME280;4683;50.864;12.086;2024-03-08T03:09:24;99504.03;;;0.52;100.00
9289;BME280;4683;50.864;12.086;2024-03-08T03:11:54;99503.22;;;0.52;100.00
9289;BME280;4683;50.864;12.086;2024-03-08T03:14:24;99506.63;;;0.52;100.00
9289;BME280;4683;50.864;12.086;2024-03-08T03:16:53;99501.88;;;0.46;100.00
9289;BME280;4683;50.864;12.086;2024-03-08T03:19:21;99495.94;;;0.44;100.00
9289;BME280;4683;50.864;12.086;2024-03-08T03:21:51;99498.75;;;0.41;100.00
9289;BME280;4683;50.864;12.086;2024-03-08T03:24:25;99494.94;;;0.34;100.00
9289;BME280;4683;50.864;12.086;2024-03-08T03:26:59;99495.97;;;0.31;100.00
9289;BME280;4683;50.864;12.086;2024-03-08T03:29:28;99492.03;;;0.25;100.00
9289;BME280;4683;50.864;12.086;2024-03-08T03:32:02;99486.63;;;0.16;100.00
9289;BME280;4683;50.864;12.086;2024-03-08T03:34:32;99487.06;;;0.10;100.00
9289;BME280;4683;50.864;12.086;2024-03-08T03:37:03;99498.03;;;0.13;100.00
9289;BME280;4683;50.864;12.086;2024-03-08T03:39:40;99500.13;;;0.21;100.00
9289;BME280;4683;50.864;12.086;2024-03-08T03:42:16;99491.50;;;0.20;100.00
9289;BME280;4683;50.864;12.086;2024-03-08T03:44:45;99495.75;;;0.21;100.00
9289;BME280;4683;50.864;12.086;2024-03-08T03:47:15;99499.09;;;0.23;100.00
9289;BME280;4683;50.864;12.086;2024-03-08T03:49:44;99492.84;;;0.13;100.00
9289;BME280;4683;50.864;12.086;2024-03-08T03:52:15;99492.84;;;0.13;100.00
9289;BME280;4683;50.864;12.086;2024-03-08T03:54:45;99485.50;;;0.20;100.00
9289;BME280;4683;50.864;12.086;2024-03-08T03:57:15;99488.72;;;0.23;100.00
9289;BME280;4683;50.864;12.086;2024-03-08T03:59:47;99485.19;;;0.24;100.00
9289;BME280;4683;50.864;12.086;2024-03-08T04:02:16;99483.53;;;0.23;100.00
9289;BME280;4683;50.864;12.086;2024-03-08T04:04:48;99481.13;;;0.20;100.00
9289;BME280;4683;50.864;12.086;2024-03-08T04:07:17;99483.84;;;0.19;100.00
9289;BME280;4683;50.864;12.086;2024-03-08T04:09:47;99479.88;;;0.13;100.00
9289;BME280;4683;50.864;12.086;2024-03-08T04:12:17;99477.50;;;0.10;100.00
9289;BME280;4683;50.864;12.086;2024-03-08T04:14:47;99475.75;;;0.11;100.00
9289;BME280;4683;50.864;12.086;2024-03-08T04:17:17;99480.09;;;0.10;100.00
9289;BME280;4683;50.864;12.086;2024-03-08T04:19:46;99471.69;;;0.07;100.00
9289;BME280;4683;50.864;12.086;2024-03-08T04:22:15;99471.91;;;0.04;100.00
9289;BME280;4683;50.864;12.086;2024-03-08T04:24:48;99469.53;;;0.01;100.00
9289;BME280;4683;50.864;12.086;2024-03-08T04:27:16;99474.09;;;-0.03;100.00
9289;BME280;4683;50.864;12.086;2024-03-08T04:29:46;99472.53;;;-0.06;100.00
9289;BME280;4683;50.864;12.086;2024-03-08T04:32:14;99466.94;;;-0.12;100.00
9289;BME280;4683;50.864;12.086;2024-03-08T04:34:43;99463.59;;;-0.14;100.00
9289;BME280;4683;50.864;12.086;2024-03-08T04:37:12;99456.63;;;-0.14;100.00
9289;BME280;4683;50.864;12.086;2024-03-08T04:39:42;99459.34;;;-0.15;100.00
9289;BME280;4683;50.864;12.086;2024-03-08T04:42:14;99464.53;;;-0.15;100.00
9289;BME280;4683;50.864;12.086;2024-03-08T04:44:44;99454.34;;;-0.18;100.00
9289;BME280;4683;50.864;12.086;2024-03-08T04:47:14;99457.88;;;-0.19;100.00
9289;BME280;4683;50.864;12.086;2024-03-08T04:49:44;99458.84;;;-0.20;100.00
9289;BME280;4683;50.864;12.086;2024-03-08T04:52:13;99460.59;;;-0.21;100.00
9289;BME280;4683;50.864;12.086;2024-03-08T04:54:43;99453.75;;;-0.22;100.00
9289;BME280;4683;50.864;12.086;2024-03-08T04:57:14;99454.59;;;-0.21;100.00
9289;BME280;4683;50.864;12.086;2024-03-08T04:59:46;99458.00;;;-0.21;100.00
9289;BME280;4683;50.864;12.086;2024-03-08T05:02:17;99454.78;;;-0.24;100.00
9289;BME280;4683;50.864;12.086;2024-03-08T05:04:45;99447.44;;;-0.31;100.00
9289;BME280;4683;50.864;12.086;2024-03-08T05:07:13;99446.59;;;-0.31;100.00
9289;BME280;4683;50.864;12.086;2024-03-08T05:09:43;99447.91;;;-0.38;100.00
9289;BME280;4683;50.864;12.086;2024-03-08T05:12:20;99446.56;;;-0.44;100.00
9289;BME280;4683;50.864;12.086;2024-03-08T05:14:50;99443.97;;;-0.44;100.00
9289;BME280;4683;50.864;12.086;2024-03-08T05:17:18;99441.19;;;-0.41;100.00
9289;BME280;4683;50.864;12.086;2024-03-08T05:19:47;99444.09;;;-0.33;100.00
9289;BME280;4683;50.864;12.086;2024-03-08T05:22:16;99446.59;;;-0.31;100.00
9289;BME280;4683;50.864;12.086;2024-03-08T05:24:46;99436.31;;;-0.33;100.00
9289;BME280;4683;50.864;12.086;2024-03-08T05:27:15;99433.94;;;-0.36;100.00
9289;BME280;4683;50.864;12.086;2024-03-08T05:29:46;99435.59;;;-0.35;100.00
9289;BME280;4683;50.864;12.086;2024-03-08T05:32:15;99442.84;;;-0.40;100.00
9289;BME280;4683;50.864;12.086;2024-03-08T05:34:47;99439.50;;;-0.42;100.00
9289;BME280;4683;50.864;12.086;2024-03-08T05:37:16;99433.50;;;-0.42;100.00
9289;BME280;4683;50.864;12.086;2024-03-08T05:39:45;99438.34;;;-0.63;100.00
9289;BME280;4683;50.864;12.086;2024-03-08T05:42:14;99436.84;;;-0.80;100.00
9289;BME280;4683;50.864;12.086;2024-03-08T05:44:42;99436.97;;;-0.82;100.00
9289;BME280;4683;50.864;12.086;2024-03-08T05:47:12;99443.44;;;-0.62;100.00
9289;BME280;4683;50.864;12.086;2024-03-08T05:49:42;99440.13;;;-0.51;100.00
9289;BME280;4683;50.864;12.086;2024-03-08T05:52:12;99435.16;;;-0.41;100.00
9289;BME280;4683;50.864;12.086;2024-03-08T05:54:42;99428.13;;;-0.39;100.00
9289;BME280;4683;50.864;12.086;2024-03-08T05:57:12;99445.22;;;-0.37;100.00
9289;BME280;4683;50.864;12.086;2024-03-08T05:59:42;99436.44;;;-0.34;100.00
9289;BME280;4683;50.864;12.086;2024-03-08T06:02:12;99438.06;;;-0.33;100.00
9289;BME280;4683;50.864;12.086;2024-03-08T06:04:44;99439.72;;;-0.32;100.00
9289;BME280;4683;50.864;12.086;2024-03-08T06:07:14;99443.91;;;-0.30;100.00
9289;BME280;4683;50.864;12.086;2024-03-08T06:09:45;99442.66;;;-0.24;100.00
9289;BME280;4683;50.864;12.086;2024-03-08T06:12:15;99438.50;;;-0.27;100.00
9289;BME280;4683;50.864;12.086;2024-03-08T06:14:47;99439.22;;;-0.24;100.00
9289;BME280;4683;50.864;12.086;2024-03-08T06:17:18;99445.44;;;-0.14;100.00
9289;BME280;4683;50.864;12.086;2024-03-08T06:19:50;99433.00;;;-0.09;100.00
9289;BME280;4683;50.864;12.086;2024-03-08T06:22:20;99437.78;;;-0.03;100.00
9289;BME280;4683;50.864;12.086;2024-03-08T06:24:49;99436.13;;;-0.04;100.00
9289;BME280;4683;50.864;12.086;2024-03-08T06:27:19;99426.38;;;-0.01;100.00
9289;BME280;4683;50.864;12.086;2024-03-08T06:29:50;99436.34;;;-0.07;100.00
9289;BME280;4683;50.864;12.086;2024-03-08T06:32:23;99427.94;;;-0.11;100.00
9289;BME280;4683;50.864;12.086;2024-03-08T06:34:53;99431.97;;;-0.19;100.00
9289;BME280;4683;50.864;12.086;2024-03-08T06:37:21;99433.19;;;-0.38;100.00
9289;BME280;4683;50.864;12.086;2024-03-08T06:39:51;99431.66;;;-0.40;100.00
9289;BME280;4683;50.864;12.086;2024-03-08T06:42:22;99427.69;;;-0.46;100.00
9289;BME280;4683;50.864;12.086;2024-03-08T06:44:51;99433.19;;;-0.51;100.00
9289;BME280;4683;50.864;12.086;2024-03-08T06:47:23;99428.31;;;-0.55;100.00
9289;BME280;4683;50.864;12.086;2024-03-08T06:49:52;99426.53;;;-0.55;100.00
9289;BME280;4683;50.864;12.086;2024-03-08T06:52:21;99424.56;;;-0.51;100.00
9289;BME280;4683;50.864;12.086;2024-03-08T06:54:49;99419.91;;;-0.46;100.00
9289;BME280;4683;50.864;12.086;2024-03-08T06:57:19;99420.66;;;-0.44;100.00
9289;BME280;4683;50.864;12.086;2024-03-08T06:59:48;99422.34;;;-0.30;100.00
9289;BME280;4683;50.864;12.086;2024-03-08T07:02:22;99416.09;;;-0.28;100.00
9289;BME280;4683;50.864;12.086;2024-03-08T07:04:55;99418.63;;;-0.13;100.00
9289;BME280;4683;50.864;12.086;2024-03-08T07:07:23;99424.09;;;-0.05;100.00
9289;BME280;4683;50.864;12.086;2024-03-08T07:09:53;99421.72;;;0.05;100.00
9289;BME280;4683;50.864;12.086;2024-03-08T07:12:25;99427.31;;;0.11;100.00
9289;BME280;4683;50.864;12.086;2024-03-08T07:14:54;99421.28;;;0.23;100.00
9289;BME280;4683;50.864;12.086;2024-03-08T07:17:25;99420.41;;;0.36;100.00
9289;BME280;4683;50.864;12.086;2024-03-08T07:19:54;99418.84;;;0.46;100.00
9289;BME280;4683;50.864;12.086;2024-03-08T07:22:22;99412.69;;;0.60;100.00
9289;BME280;4683;50.864;12.086;2024-03-08T07:24:59;99407.66;;;0.69;100.00
9289;BME280;4683;50.864;12.086;2024-03-08T07:27:47;99406.78;;;0.82;100.00
9289;BME280;4683;50.864;12.086;2024-03-08T07:30:16;99410.94;;;0.84;100.00
9289;BME280;4683;50.864;12.086;2024-03-08T07:33:09;99406.09;;;0.91;100.00
9289;BME280;4683;50.864;12.086;2024-03-08T07:35:44;99412.25;;;0.90;100.00
9289;BME280;4683;50.864;12.086;2024-03-08T07:38:22;99410.88;;;0.97;100.00
9289;BME280;4683;50.864;12.086;2024-03-08T07:40:52;99404.41;;;1.02;100.00
9289;BME280;4683;50.864;12.086;2024-03-08T07:43:23;99400.13;;;1.25;100.00
9289;BME280;4683;50.864;12.086;2024-03-08T07:45:52;99399.28;;;1.60;100.00
9289;BME280;4683;50.864;12.086;2024-03-08T07:48:23;99396.25;;;1.77;100.00
9289;BME280;4683;50.864;12.086;2024-03-08T07:50:52;99384.41;;;1.85;100.00
9289;BME280;4683;50.864;12.086;2024-03-08T07:53:23;99390.47;;;1.96;100.00
9289;BME280;4683;50.864;12.086;2024-03-08T07:55:52;99387.97;;;2.06;100.00
9289;BME280;4683;50.864;12.086;2024-03-08T07:58:21;99388.22;;;2.14;100.00
9289;BME280;4683;50.864;12.086;2024-03-08T08:00:53;99385.16;;;2.09;100.00
9289;BME280;4683;50.864;12.086;2024-03-08T08:03:23;99381.47;;;2.23;100.00
9289;BME280;4683;50.864;12.086;2024-03-08T08:05:52;99379.44;;;2.26;100.00
9289;BME280;4683;50.864;12.086;2024-03-08T08:08:22;99382.03;;;2.26;100.00
9289;BME280;4683;50.864;12.086;2024-03-08T08:10:51;99381.09;;;2.39;100.00
9289;BME280;4683;50.864;12.086;2024-03-08T08:13:22;99372.63;;;2.69;100.00
9289;BME280;4683;50.864;12.086;2024-03-08T08:15:51;99372.06;;;2.97;100.00
9289;BME280;4683;50.864;12.086;2024-03-08T08:18:25;99377.09;;;3.10;100.00
9289;BME280;4683;50.864;12.086;2024-03-08T08:20:54;99359.31;;;3.15;100.00
9289;BME280;4683;50.864;12.086;2024-03-08T08:23:23;99364.66;;;3.35;100.00
9289;BME280;4683;50.864;12.086;2024-03-08T08:25:51;99357.66;;;3.56;100.00
9289;BME280;4683;50.864;12.086;2024-03-08T08:28:20;99351.31;;;3.79;100.00
9289;BME280;4683;50.864;12.086;2024-03-08T08:30:48;99351.94;;;3.93;100.00
9289;BME280;4683;50.864;12.086;2024-03-08T08:33:17;99352.13;;;4.11;100.00
9289;BME280;4683;50.864;12.086;2024-03-08T08:35:48;99349.47;;;4.31;100.00
9289;BME280;4683;50.864;12.086;2024-03-08T08:38:21;99341.53;;;4.52;100.00
9289;BME280;4683;50.864;12.086;2024-03-08T08:40:53;99334.25;;;4.66;100.00
9289;BME280;4683;50.864;12.086;2024-03-08T08:43:24;99337.56;;;4.87;100.00
9289;BME280;4683;50.864;12.086;2024-03-08T08:45:53;99340.03;;;4.98;100.00
9289;BME280;4683;50.864;12.086;2024-03-08T08:48:24;99332.91;;;4.91;100.00
9289;BME280;4683;50.864;12.086;2024-03-08T08:50:55;99320.50;;;5.02;100.00
9289;BME280;4683;50.864;12.086;2024-03-08T08:53:24;99326.94;;;5.37;100.00
9289;BME280;4683;50.864;12.086;2024-03-08T08:55:53;99322.19;;;5.60;100.00
9289;BME280;4683;50.864;12.086;2024-03-08T08:58:21;99322.94;;;5.80;100.00
9289;BME280;4683;50.864;12.086;2024-03-08T09:00:55;99326.78;;;5.85;100.00
9289;BME280;4683;50.864;12.086;2024-03-08T09:03:26;99323.22;;;5.87;100.00
9289;BME280;4683;50.864;12.086;2024-03-08T09:06:00;99314.59;;;6.04;100.00
9289;BME280;4683;50.864;12.086;2024-03-08T09:08:31;99308.75;;;6.20;100.00
9289;BME280;4683;50.864;12.086;2024-03-08T09:10:59;99306.44;;;6.34;100.00
9289;BME280;4683;50.864;12.086;2024-03-08T09:13:28;99301.91;;;6.37;100.00
9289;BME280;4683;50.864;12.086;2024-03-08T09:15:56;99307.44;;;6.51;100.00
9289;BME280;4683;50.864;12.086;2024-03-08T09:18:25;99307.63;;;6.68;100.00
9289;BME280;4683;50.864;12.086;2024-03-08T09:20:54;99307.84;;;6.74;100.00
9289;BME280;4683;50.864;12.086;2024-03-08T09:23:24;99300.94;;;6.73;100.00
9289;BME280;4683;50.864;12.086;2024-03-08T09:25:57;99297.19;;;6.94;100.00
9289;BME280;4683;50.864;12.086;2024-03-08T09:28:26;99305.41;;;6.99;100.00
9289;BME280;4683;50.864;12.086;2024-03-08T09:30:54;99295.63;;;7.01;100.00
9289;BME280;4683;50.864;12.086;2024-03-08T09:33:23;99295.00;;;6.71;100.00
9289;BME280;4683;50.864;12.086;2024-03-08T09:35:52;99293.56;;;6.95;100.00
9289;BME280;4683;50.864;12.086;2024-03-08T09:38:21;99295.53;;;6.93;100.00
9289;BME280;4683;50.864;12.086;2024-03-08T09:40:51;99278.38;;;6.80;100.00
9289;BME280;4683;50.864;12.086;2024-03-08T09:43:21;99278.75;;;6.85;100.00
9289;BME280;4683;50.864;12.086;2024-03-08T09:45:55;99275.41;;;6.75;100.00
9289;BME280;4683;50.864;12.086;2024-03-08T09:48:28;99282.03;;;7.05;100.00
9289;BME280;4683;50.864;12.086;2024-03-08T09:50:59;99276.25;;;7.20;100.00
9289;BME280;4683;50.864;12.086;2024-03-08T09:53:29;99277.19;;;7.36;100.00
9289;BME280;4683;50.864;12.086;2024-03-08T09:56:03;99275.03;;;7.40;100.00
9289;BME280;4683;50.864;12.086;2024-03-08T09:58:32;99276.25;;;7.46;100.00
9289;BME280;4683;50.864;12.086;2024-03-08T10:01:22;99267.34;;;7.38;100.00
9289;BME280;4683;50.864;12.086;2024-03-08T10:03:53;99265.13;;;7.52;100.00
9289;BME280;4683;50.864;12.086;2024-03-08T10:06:24;99262.25;;;7.71;100.00
9289;BME280;4683;50.864;12.086;2024-03-08T10:08:53;99264.66;;;7.91;100.00
9289;BME280;4683;50.864;12.086;2024-03-08T10:11:24;99261.69;;;7.94;100.00
9289;BME280;4683;50.864;12.086;2024-03-08T10:14:04;99257.09;;;7.87;100.00
9289;BME280;4683;50.864;12.086;2024-03-08T10:16:36;99246.84;;;7.76;100.00
9289;BME280;4683;50.864;12.086;2024-03-08T10:19:08;99246.88;;;7.84;100.00
9289;BME280;4683;50.864;12.086;2024-03-08T10:21:49;99241.28;;;7.79;100.00
9289;BME280;4683;50.864;12.086;2024-03-08T10:24:22;99247.56;;;7.86;100.00
9289;BME280;4683;50.864;12.086;2024-03-08T10:26:53;99237.72;;;7.88;100.00
9289;BME280;4683;50.864;12.086;2024-03-08T10:29:27;99238.38;;;7.99;100.00
9289;BME280;4683;50.864;12.086;2024-03-08T10:31:56;99224.66;;;8.13;100.00
9289;BME280;4683;50.864;12.086;2024-03-08T10:34:25;99231.09;;;7.68;100.00
9289;BME280;4683;50.864;12.086;2024-03-08T10:36:53;99217.56;;;7.97;100.00
9289;BME280;4683;50.864;12.086;2024-03-08T10:39:34;99216.78;;;8.13;100.00
9289;BME280;4683;50.864;12.086;2024-03-08T10:42:05;99213.03;;;8.32;100.00
9289;BME280;4683;50.864;12.086;2024-03-08T10:44:51;99214.22;;;8.54;100.00
9289;BME280;4683;50.864;12.086;2024-03-08T10:47:28;99212.28;;;8.72;100.00
9289;BME280;4683;50.864;12.086;2024-03-08T10:50:08;99214.22;;;8.70;100.00
9289;BME280;4683;50.864;12.086;2024-03-08T10:52:42;99206.03;;;8.81;100.00
9289;BME280;4683;50.864;12.086;2024-03-08T10:55:13;99209.63;;;8.80;100.00
9289;BME280;4683;50.864;12.086;2024-03-08T10:57:44;99195.13;;;8.93;100.00
9289;BME280;4683;50.864;12.086;2024-03-08T11:00:17;99196.63;;;8.95;100.00
9289;BME280;4683;50.864;12.086;2024-03-08T11:02:54;99201.84;;;9.11;100.00
9289;BME280;4683;50.864;12.086;2024-03-08T11:05:37;99186.88;;;9.12;100.00
9289;BME280;4683;50.864;12.086;2024-03-08T11:08:17;99186.34;;;9.25;100.00
9289;BME280;4683;50.864;12.086;2024-03-08T11:10:48;99177.66;;;9.24;100.00
9289;BME280;4683;50.864;12.086;2024-03-08T11:19:24;99170.34;;;9.43;100.00
9289;BME280;4683;50.864;12.086;2024-03-08T11:22:00;99156.81;;;9.54;100.00
9289;BME280;4683;50.864;12.086;2024-03-08T11:24:40;99148.66;;;9.40;100.00
9289;BME280;4683;50.864;12.086;2024-03-08T11:27:11;99152.78;;;9.66;100.00
9289;BME280;4683;50.864;12.086;2024-03-08T11:29:41;99141.19;;;9.83;100.00
9289;BME280;4683;50.864;12.086;2024-03-08T11:32:15;99139.69;;;9.81;100.00
9289;BME280;4683;50.864;12.086;2024-03-08T11:36:03;99133.53;;;9.97;99.82
9289;BME280;4683;50.864;12.086;2024-03-08T11:38:43;99136.44;;;10.02;100.00
9289;BME280;4683;50.864;12.086;2024-03-08T11:41:17;99126.84;;;10.09;100.00
9289;BME280;4683;50.864;12.086;2024-03-08T11:43:47;99114.97;;;10.13;99.36
9289;BME280;4683;50.864;12.086;2024-03-08T11:46:17;99118.06;;;10.16;96.93
9289;BME280;4683;50.864;12.086;2024-03-08T11:48:48;99108.16;;;10.19;96.28
9289;BME280;4683;50.864;12.086;2024-03-08T11:51:23;99112.22;;;10.29;97.22
9289;BME280;4683;50.864;12.086;2024-03-08T11:53:53;99122.66;;;10.46;96.65
9289;BME280;4683;50.864;12.086;2024-03-08T11:56:24;99110.81;;;10.41;94.89
9289;BME280;4683;50.864;12.086;2024-03-08T11:58:57;99107.88;;;10.36;92.34
9289;BME280;4683;50.864;12.086;2024-03-08T12:01:31;99090.59;;;10.34;94.08
9289;BME280;4683;50.864;12.086;2024-03-08T12:04:04;99088.09;;;10.55;92.73
9289;BME280;4683;50.864;12.086;2024-03-08T12:06:39;99096.84;;;10.56;90.81
9289;BME280;4683;50.864;12.086;2024-03-08T12:09:12;99085.28;;;10.57;90.34
9289;BME280;4683;50.864;12.086;2024-03-08T12:11:42;99078.44;;;10.48;88.96
9289;BME280;4683;50.864;12.086;2024-03-08T12:14:13;99074.91;;;10.55;88.86
9289;BME280;4683;50.864;12.086;2024-03-08T12:16:43;99077.00;;;10.60;89.85
9289;BME280;4683;50.864;12.086;2024-03-08T12:19:13;99065.66;;;10.74;87.69
9289;BME280;4683;50.864;12.086;2024-03-08T12:21:45;99053.38;;;10.81;87.50
9289;BME280;4683;50.864;12.086;2024-03-08T12:24:17;99054.44;;;11.02;87.28
9289;BME280;4683;50.864;12.086;2024-03-08T12:26:48;99052.25;;;11.05;87.89
9289;BME280;4683;50.864;12.086;2024-03-08T12:29:22;99044.69;;;11.17;85.58
9289;BME280;4683;50.864;12.086;2024-03-08T12:31:57;99040.41;;;11.16;86.51
9289;BME280;4683;50.864;12.086;2024-03-08T12:34:31;99028.28;;;11.22;86.71
9289;BME280;4683;50.864;12.086;2024-03-08T12:37:04;99030.47;;;11.33;85.29
9289;BME280;4683;50.864;12.086;2024-03-08T12:39:35;99024.97;;;11.34;85.80
9289;BME280;4683;50.864;12.086;2024-03-08T12:42:05;99009.03;;;11.42;84.27
9289;BME280;4683;50.864;12.086;2024-03-08T12:44:36;99007.19;;;11.43;84.10
9289;BME280;4683;50.864;12.086;2024-03-08T12:47:10;99009.28;;;11.48;84.89
9289;BME280;4683;50.864;12.086;2024-03-08T12:49:41;99004.81;;;11.48;81.75
9289;BME280;4683;50.864;12.086;2024-03-08T12:52:12;99001.34;;;11.48;81.02
9289;BME280;4683;50.864;12.086;2024-03-08T12:54:41;98989.34;;;11.45;82.02
9289;BME280;4683;50.864;12.086;2024-03-08T12:57:11;98996.50;;;11.51;82.61
9289;BME280;4683;50.864;12.086;2024-03-08T12:59:40;98988.03;;;11.56;80.26
9289;BME280;4683;50.864;12.086;2024-03-08T13:02:09;98993.34;;;11.62;81.80
9289;BME280;4683;50.864;12.086;2024-03-08T13:04:38;98983.50;;;11.50;81.68
9289;BME280;4683;50.864;12.086;2024-03-08T13:07:11;98981.56;;;11.58;83.07
9289;BME280;4683;50.864;12.086;2024-03-08T13:09:43;98974.81;;;11.77;83.68
9289;BME280;4683;50.864;12.086;2024-03-08T13:12:14;98971.50;;;11.90;81.88
9289;BME280;4683;50.864;12.086;2024-03-08T13:14:43;98969.66;;;11.90;80.29
9289;BME280;4683;50.864;12.086;2024-03-08T13:17:12;98965.56;;;11.88;80.20
9289;BME280;4683;50.864;12.086;2024-03-08T13:19:42;98952.00;;;11.98;80.29
9289;BME280;4683;50.864;12.086;2024-03-08T13:22:13;98952.84;;;11.98;78.63
9289;BME280;4683;50.864;12.086;2024-03-08T13:24:44;98953.91;;;12.04;78.01
9289;BME280;4683;50.864;12.086;2024-03-08T13:27:13;98949.00;;;12.01;76.67
9289;BME280;4683;50.864;12.086;2024-03-08T13:29:55;98950.19;;;11.98;76.62
9289;BME280;4683;50.864;12.086;2024-03-08T13:32:23;98941.69;;;12.03;76.01
9289;BME280;4683;50.864;12.086;2024-03-08T13:34:54;98933.59;;;12.11;74.84
9289;BME280;4683;50.864;12.086;2024-03-08T13:37:25;98931.53;;;12.06;72.95